Terminal Aerodrome Forecast
Issued by NWS Greer, SC

Home | Current Version | Previous Version | Text Only | Print | Product List | Glossary On
Versions: 1 2 3 4 5 6 7 8 9 10 11 12 13 14 15 16 17 18 19 20 21 22 23 24 25 26 27 28 29 30 31 32 33 34 35 36 37 38 39 40 41 42 43 44
000
FTUS42 KGSP 110800 AAC
TAFAVL
TAF AMD
KAVL 110825Z 1108/1206 22003KT 1/2SM FG BKN004
      TEMPO 1108/1110 1/4SM FG BKN002
     FM111000 00000KT 1/4SM FG BKN002
     FM111300 36003KT P6SM SCT050
     FM112000 12006KT P6SM BKN050 PROB30 1120/1123 4SM TSRA BKN040CB
     FM120200 VRB03KT P6SM SCT050=

USA.gov is the U.S. government's official web portal to all federal, state and local government web resources and services.